sensor_id;sensor_type;location;lat;lon;timestamp;P1;durP1;ratioP1;P2;durP2;ratioP2
8596;SDS011;4336;49.310;8.646;2023-11-21T00:01:01;17.10;;;6.40;;
8596;SDS011;4336;49.310;8.646;2023-11-21T00:03:29;16.27;;;8.20;;
8596;SDS011;4336;49.310;8.646;2023-11-21T00:05:55;22.53;;;9.53;;
8596;SDS011;4336;49.310;8.646;2023-11-21T00:08:21;19.13;;;8.53;;
8596;SDS011;4336;49.310;8.646;2023-11-21T00:10:48;20.10;;;9.43;;
8596;SDS011;4336;49.310;8.646;2023-11-21T00:13:14;15.93;;;8.00;;
8596;SDS011;4336;49.310;8.646;2023-11-21T00:15:40;19.87;;;8.77;;
8596;SDS011;4336;49.310;8.646;2023-11-21T00:18:06;15.77;;;6.97;;
8596;SDS011;4336;49.310;8.646;2023-11-21T00:20:32;12.70;;;8.03;;
8596;SDS011;4336;49.310;8.646;2023-11-21T00:22:58;20.70;;;8.23;;
8596;SDS011;4336;49.310;8.646;2023-11-21T00:25:24;21.83;;;8.47;;
8596;SDS011;4336;49.310;8.646;2023-11-21T00:27:50;17.33;;;8.03;;
8596;SDS011;4336;49.310;8.646;2023-11-21T00:30:16;21.33;;;9.03;;
8596;SDS011;4336;49.310;8.646;2023-11-21T00:32:42;18.13;;;8.13;;
8596;SDS011;4336;49.310;8.646;2023-11-21T00:35:08;17.37;;;8.80;;
8596;SDS011;4336;49.310;8.646;2023-11-21T00:37:34;15.37;;;7.60;;
8596;SDS011;4336;49.310;8.646;2023-11-21T00:40:00;18.03;;;7.23;;
8596;SDS011;4336;49.310;8.646;2023-11-21T00:42:31;13.00;;;8.53;;
8596;SDS011;4336;49.310;8.646;2023-11-21T00:44:59;23.90;;;7.13;;
8596;SDS011;4336;49.310;8.646;2023-11-21T00:47:25;19.23;;;7.10;;
8596;SDS011;4336;49.310;8.646;2023-11-21T00:49:50;18.80;;;8.83;;
8596;SDS011;4336;49.310;8.646;2023-11-21T00:52:16;14.70;;;8.13;;
8596;SDS011;4336;49.310;8.646;2023-11-21T00:54:42;21.80;;;8.53;;
8596;SDS011;4336;49.310;8.646;2023-11-21T00:57:08;18.67;;;7.03;;
8596;SDS011;4336;49.310;8.646;2023-11-21T00:59:37;18.60;;;8.40;;
8596;SDS011;4336;49.310;8.646;2023-11-21T01:02:02;17.90;;;8.60;;
8596;SDS011;4336;49.310;8.646;2023-11-21T01:04:30;13.70;;;8.20;;
8596;SDS011;4336;49.310;8.646;2023-11-21T01:06:57;19.77;;;8.40;;
8596;SDS011;4336;49.310;8.646;2023-11-21T01:09:24;17.57;;;8.87;;
8596;SDS011;4336;49.310;8.646;2023-11-21T01:11:51;15.93;;;8.50;;
8596;SDS011;4336;49.310;8.646;2023-11-21T01:14:17;14.93;;;7.80;;
8596;SDS011;4336;49.310;8.646;2023-11-21T01:16:44;18.30;;;8.00;;
8596;SDS011;4336;49.310;8.646;2023-11-21T01:19:10;20.50;;;8.27;;
8596;SDS011;4336;49.310;8.646;2023-11-21T01:21:36;14.40;;;7.70;;
8596;SDS011;4336;49.310;8.646;2023-11-21T01:24:02;17.27;;;8.60;;
8596;SDS011;4336;49.310;8.646;2023-11-21T01:26:30;20.00;;;8.33;;
8596;SDS011;4336;49.310;8.646;2023-11-21T01:28:56;14.70;;;7.80;;
8596;SDS011;4336;49.310;8.646;2023-11-21T01:31:21;14.67;;;8.50;;
8596;SDS011;4336;49.310;8.646;2023-11-21T01:33:47;15.10;;;8.03;;
8596;SDS011;4336;49.310;8.646;2023-11-21T01:36:13;15.77;;;8.27;;
8596;SDS011;4336;49.310;8.646;2023-11-21T01:38:39;15.37;;;8.70;;
8596;SDS011;4336;49.310;8.646;2023-11-21T01:41:05;18.70;;;7.97;;
8596;SDS011;4336;49.310;8.646;2023-11-21T01:43:31;11.67;;;7.63;;
8596;SDS011;4336;49.310;8.646;2023-11-21T01:45:57;11.63;;;7.37;;
8596;SDS011;4336;49.310;8.646;2023-11-21T01:48:23;13.63;;;7.23;;
8596;SDS011;4336;49.310;8.646;2023-11-21T01:50:49;14.73;;;7.93;;
8596;SDS011;4336;49.310;8.646;2023-11-21T01:53:16;12.60;;;7.23;;
8596;SDS011;4336;49.310;8.646;2023-11-21T01:55:43;13.87;;;7.40;;
8596;SDS011;4336;49.310;8.646;2023-11-21T01:58:10;13.90;;;7.90;;
8596;SDS011;4336;49.310;8.646;2023-11-21T02:00:38;15.50;;;7.77;;
8596;SDS011;4336;49.310;8.646;2023-11-21T02:03:04;13.87;;;6.87;;
8596;SDS011;4336;49.310;8.646;2023-11-21T02:05:29;15.27;;;7.83;;
8596;SDS011;4336;49.310;8.646;2023-11-21T02:07:57;14.00;;;8.33;;
8596;SDS011;4336;49.310;8.646;2023-11-21T02:10:23;12.00;;;7.47;;
8596;SDS011;4336;49.310;8.646;2023-11-21T02:12:50;10.57;;;6.90;;
8596;SDS011;4336;49.310;8.646;2023-11-21T02:15:16;12.53;;;6.80;;
8596;SDS011;4336;49.310;8.646;2023-11-21T02:17:49;11.63;;;5.70;;
8596;SDS011;4336;49.310;8.646;2023-11-21T02:20:19;12.13;;;7.53;;
8596;SDS011;4336;49.310;8.646;2023-11-21T02:22:49;15.17;;;7.67;;
8596;SDS011;4336;49.310;8.646;2023-11-21T02:25:23;10.90;;;7.37;;
8596;SDS011;4336;49.310;8.646;2023-11-21T02:27:50;11.33;;;6.73;;
8596;SDS011;4336;49.310;8.646;2023-11-21T02:30:16;14.10;;;7.17;;
8596;SDS011;4336;49.310;8.646;2023-11-21T02:32:42;12.50;;;7.03;;
8596;SDS011;4336;49.310;8.646;2023-11-21T02:35:08;11.10;;;6.90;;
8596;SDS011;4336;49.310;8.646;2023-11-21T02:37:34;11.03;;;6.97;;
8596;SDS011;4336;49.310;8.646;2023-11-21T02:40:00;15.47;;;7.30;;
8596;SDS011;4336;49.310;8.646;2023-11-21T02:42:30;10.67;;;7.17;;
8596;SDS011;4336;49.310;8.646;2023-11-21T02:44:56;8.23;;;6.93;;
8596;SDS011;4336;49.310;8.646;2023-11-21T02:47:22;10.70;;;6.53;;
8596;SDS011;4336;49.310;8.646;2023-11-21T02:49:48;10.53;;;7.07;;
8596;SDS011;4336;49.310;8.646;2023-11-21T02:52:14;12.97;;;8.47;;
8596;SDS011;4336;49.310;8.646;2023-11-21T02:54:41;14.10;;;10.07;;
8596;SDS011;4336;49.310;8.646;2023-11-21T02:57:07;14.07;;;11.30;;
8596;SDS011;4336;49.310;8.646;2023-11-21T02:59:34;15.43;;;7.33;;
8596;SDS011;4336;49.310;8.646;2023-11-21T03:02:00;13.77;;;6.87;;
8596;SDS011;4336;49.310;8.646;2023-11-21T03:04:26;9.27;;;7.00;;
8596;SDS011;4336;49.310;8.646;2023-11-21T03:06:52;11.97;;;6.90;;
8596;SDS011;4336;49.310;8.646;2023-11-21T03:09:18;9.80;;;6.80;;
8596;SDS011;4336;49.310;8.646;2023-11-21T03:11:44;11.20;;;7.37;;
8596;SDS011;4336;49.310;8.646;2023-11-21T03:14:10;10.27;;;5.87;;
8596;SDS011;4336;49.310;8.646;2023-11-21T03:16:36;7.27;;;5.60;;
8596;SDS011;4336;49.310;8.646;2023-11-21T03:19:03;14.40;;;7.00;;
8596;SDS011;4336;49.310;8.646;2023-11-21T03:21:30;11.70;;;7.97;;
8596;SDS011;4336;49.310;8.646;2023-11-21T03:23:56;11.00;;;6.73;;
8596;SDS011;4336;49.310;8.646;2023-11-21T03:26:22;10.80;;;7.17;;
8596;SDS011;4336;49.310;8.646;2023-11-21T03:28:47;11.03;;;6.73;;
8596;SDS011;4336;49.310;8.646;2023-11-21T03:31:13;11.33;;;7.70;;
8596;SDS011;4336;49.310;8.646;2023-11-21T03:33:41;15.83;;;7.23;;
8596;SDS011;4336;49.310;8.646;2023-11-21T03:36:07;17.60;;;6.67;;
8596;SDS011;4336;49.310;8.646;2023-11-21T03:38:34;10.00;;;6.67;;
8596;SDS011;4336;49.310;8.646;2023-11-21T03:41:01;11.30;;;5.60;;
8596;SDS011;4336;49.310;8.646;2023-11-21T03:43:27;12.57;;;7.77;;
8596;SDS011;4336;49.310;8.646;2023-11-21T03:45:53;16.43;;;8.80;;
8596;SDS011;4336;49.310;8.646;2023-11-21T03:48:19;10.17;;;7.70;;
8596;SDS011;4336;49.310;8.646;2023-11-21T03:50:45;9.83;;;5.60;;
8596;SDS011;4336;49.310;8.646;2023-11-21T03:53:12;11.67;;;7.43;;
8596;SDS011;4336;49.310;8.646;2023-11-21T03:55:38;11.87;;;7.23;;
8596;SDS011;4336;49.310;8.646;2023-11-21T03:58:04;14.80;;;6.40;;
8596;SDS011;4336;49.310;8.646;2023-11-21T04:00:29;12.03;;;7.80;;
8596;SDS011;4336;49.310;8.646;2023-11-21T04:02:55;15.50;;;8.57;;
8596;SDS011;4336;49.310;8.646;2023-11-21T04:05:21;14.03;;;9.00;;
8596;SDS011;4336;49.310;8.646;2023-11-21T04:07:48;17.27;;;9.00;;
8596;SDS011;4336;49.310;8.646;2023-11-21T04:10:15;13.80;;;8.50;;
8596;SDS011;4336;49.310;8.646;2023-11-21T04:12:41;14.90;;;6.90;;
8596;SDS011;4336;49.310;8.646;2023-11-21T04:15:07;15.83;;;9.80;;
8596;SDS011;4336;49.310;8.646;2023-11-21T04:17:34;16.23;;;9.47;;
8596;SDS011;4336;49.310;8.646;2023-11-21T04:20:02;17.67;;;10.53;;
8596;SDS011;4336;49.310;8.646;2023-11-21T04:22:28;14.73;;;8.93;;
8596;SDS011;4336;49.310;8.646;2023-11-21T04:24:54;14.97;;;9.13;;
8596;SDS011;4336;49.310;8.646;2023-11-21T04:27:21;21.27;;;10.17;;
8596;SDS011;4336;49.310;8.646;2023-11-21T04:29:47;17.73;;;8.47;;
8596;SDS011;4336;49.310;8.646;2023-11-21T04:32:12;17.57;;;9.30;;
8596;SDS011;4336;49.310;8.646;2023-11-21T04:34:38;16.27;;;9.40;;
8596;SDS011;4336;49.310;8.646;2023-11-21T04:37:04;13.87;;;8.90;;
8596;SDS011;4336;49.310;8.646;2023-11-21T04:39:31;17.10;;;9.53;;
8596;SDS011;4336;49.310;8.646;2023-11-21T04:41:57;18.57;;;10.27;;
8596;SDS011;4336;49.310;8.646;2023-11-21T04:44:23;19.63;;;9.07;;
8596;SDS011;4336;49.310;8.646;2023-11-21T04:46:48;17.33;;;9.80;;
8596;SDS011;4336;49.310;8.646;2023-11-21T04:49:14;21.07;;;11.43;;
8596;SDS011;4336;49.310;8.646;2023-11-21T04:51:40;20.93;;;9.83;;
8596;SDS011;4336;49.310;8.646;2023-11-21T04:54:05;15.63;;;9.73;;
8596;SDS011;4336;49.310;8.646;2023-11-21T04:56:31;20.63;;;10.47;;
8596;SDS011;4336;49.310;8.646;2023-11-21T04:58:57;14.20;;;8.87;;
8596;SDS011;4336;49.310;8.646;2023-11-21T05:01:23;17.13;;;11.67;;
8596;SDS011;4336;49.310;8.646;2023-11-21T05:03:49;17.10;;;8.37;;
8596;SDS011;4336;49.310;8.646;2023-11-21T05:06:15;17.63;;;11.03;;
8596;SDS011;4336;49.310;8.646;2023-11-21T05:08:41;24.07;;;10.10;;
8596;SDS011;4336;49.310;8.646;2023-11-21T05:11:07;21.53;;;10.57;;
8596;SDS011;4336;49.310;8.646;2023-11-21T05:13:35;16.60;;;9.50;;
8596;SDS011;4336;49.310;8.646;2023-11-21T05:16:02;17.53;;;9.40;;
8596;SDS011;4336;49.310;8.646;2023-11-21T05:18:32;18.70;;;9.47;;
8596;SDS011;4336;49.310;8.646;2023-11-21T05:20:59;20.37;;;10.50;;
8596;SDS011;4336;49.310;8.646;2023-11-21T05:23:26;12.60;;;9.17;;
8596;SDS011;4336;49.310;8.646;2023-11-21T05:25:52;14.50;;;9.30;;
8596;SDS011;4336;49.310;8.646;2023-11-21T05:28:18;18.63;;;10.13;;
8596;SDS011;4336;49.310;8.646;2023-11-21T05:30:44;13.30;;;9.93;;
8596;SDS011;4336;49.310;8.646;2023-11-21T05:33:09;11.70;;;9.73;;
8596;SDS011;4336;49.310;8.646;2023-11-21T05:35:35;16.93;;;9.83;;
8596;SDS011;4336;49.310;8.646;2023-11-21T05:38:01;18.67;;;9.70;;
8596;SDS011;4336;49.310;8.646;2023-11-21T05:40:26;19.77;;;9.50;;
8596;SDS011;4336;49.310;8.646;2023-11-21T05:42:55;15.87;;;10.33;;
8596;SDS011;4336;49.310;8.646;2023-11-21T05:45:21;18.83;;;11.87;;
8596;SDS011;4336;49.310;8.646;2023-11-21T05:47:47;13.63;;;10.80;;
8596;SDS011;4336;49.310;8.646;2023-11-21T05:50:13;15.13;;;10.67;;
8596;SDS011;4336;49.310;8.646;2023-11-21T05:52:40;12.60;;;10.30;;
8596;SDS011;4336;49.310;8.646;2023-11-21T05:55:07;14.73;;;10.97;;
8596;SDS011;4336;49.310;8.646;2023-11-21T05:57:34;14.77;;;10.53;;
8596;SDS011;4336;49.310;8.646;2023-11-21T06:00:07;16.47;;;9.40;;
8596;SDS011;4336;49.310;8.646;2023-11-21T06:02:40;14.47;;;10.53;;
8596;SDS011;4336;49.310;8.646;2023-11-21T06:05:06;15.83;;;11.33;;
8596;SDS011;4336;49.310;8.646;2023-11-21T06:07:33;17.50;;;11.87;;
8596;SDS011;4336;49.310;8.646;2023-11-21T06:10:01;17.47;;;10.87;;
8596;SDS011;4336;49.310;8.646;2023-11-21T06:12:28;25.73;;;17.50;;
8596;SDS011;4336;49.310;8.646;2023-11-21T06:14:54;23.80;;;13.23;;
8596;SDS011;4336;49.310;8.646;2023-11-21T06:17:21;22.03;;;15.87;;
8596;SDS011;4336;49.310;8.646;2023-11-21T06:19:49;16.87;;;14.00;;
8596;SDS011;4336;49.310;8.646;2023-11-21T06:22:16;17.43;;;14.13;;
8596;SDS011;4336;49.310;8.646;2023-11-21T06:24:42;27.70;;;19.60;;
8596;SDS011;4336;49.310;8.646;2023-11-21T06:27:08;24.77;;;16.33;;
8596;SDS011;4336;49.310;8.646;2023-11-21T06:29:33;20.40;;;15.83;;
8596;SDS011;4336;49.310;8.646;2023-11-21T06:31:59;19.60;;;13.67;;
8596;SDS011;4336;49.310;8.646;2023-11-21T06:34:25;17.80;;;13.37;;
8596;SDS011;4336;49.310;8.646;2023-11-21T06:36:52;19.50;;;12.47;;
8596;SDS011;4336;49.310;8.646;2023-11-21T06:39:18;15.47;;;12.57;;
8596;SDS011;4336;49.310;8.646;2023-11-21T06:41:48;19.67;;;13.70;;
8596;SDS011;4336;49.310;8.646;2023-11-21T06:44:14;16.00;;;12.40;;
8596;SDS011;4336;49.310;8.646;2023-11-21T06:46:40;20.40;;;13.43;;
8596;SDS011;4336;49.310;8.646;2023-11-21T06:49:07;16.90;;;13.60;;
8596;SDS011;4336;49.310;8.646;2023-11-21T06:51:33;19.03;;;14.17;;
8596;SDS011;4336;49.310;8.646;2023-11-21T06:53:59;20.17;;;15.20;;
8596;SDS011;4336;49.310;8.646;2023-11-21T06:56:25;20.70;;;16.40;;
8596;SDS011;4336;49.310;8.646;2023-11-21T06:58:51;22.37;;;14.77;;
8596;SDS011;4336;49.310;8.646;2023-11-21T07:01:19;20.30;;;17.73;;
8596;SDS011;4336;49.310;8.646;2023-11-21T07:03:45;20.23;;;16.23;;
8596;SDS011;4336;49.310;8.646;2023-11-21T07:06:11;25.07;;;16.80;;
8596;SDS011;4336;49.310;8.646;2023-11-21T07:08:36;18.87;;;15.37;;
8596;SDS011;4336;49.310;8.646;2023-11-21T07:11:05;16.30;;;14.20;;
8596;SDS011;4336;49.310;8.646;2023-11-21T07:13:32;18.73;;;14.97;;
8596;SDS011;4336;49.310;8.646;2023-11-21T07:15:58;19.87;;;15.93;;
8596;SDS011;4336;49.310;8.646;2023-11-21T07:18:25;23.10;;;16.43;;
8596;SDS011;4336;49.310;8.646;2023-11-21T07:20:51;21.60;;;16.37;;
8596;SDS011;4336;49.310;8.646;2023-11-21T07:23:17;26.63;;;16.23;;
8596;SDS011;4336;49.310;8.646;2023-11-21T07:25:43;19.33;;;14.97;;
8596;SDS011;4336;49.310;8.646;2023-11-21T07:28:09;27.33;;;21.97;;
8596;SDS011;4336;49.310;8.646;2023-11-21T07:30:35;20.03;;;16.70;;
8596;SDS011;4336;49.310;8.646;2023-11-21T07:33:02;38.00;;;32.57;;
8596;SDS011;4336;49.310;8.646;2023-11-21T07:35:29;19.23;;;16.97;;
8596;SDS011;4336;49.310;8.646;2023-11-21T07:37:55;20.90;;;16.77;;
8596;SDS011;4336;49.310;8.646;2023-11-21T07:40:21;17.47;;;14.73;;
8596;SDS011;4336;49.310;8.646;2023-11-21T07:42:47;22.33;;;17.03;;
8596;SDS011;4336;49.310;8.646;2023-11-21T07:45:15;14.83;;;13.33;;
8596;SDS011;4336;49.310;8.646;2023-11-21T07:47:42;20.50;;;15.47;;
8596;SDS011;4336;49.310;8.646;2023-11-21T07:50:08;19.60;;;17.17;;
8596;SDS011;4336;49.310;8.646;2023-11-21T07:52:34;20.57;;;15.90;;
8596;SDS011;4336;49.310;8.646;2023-11-21T07:55:02;22.47;;;17.37;;
8596;SDS011;4336;49.310;8.646;2023-11-21T07:57:28;31.93;;;22.37;;
8596;SDS011;4336;49.310;8.646;2023-11-21T07:59:54;22.30;;;18.73;;
8596;SDS011;4336;49.310;8.646;2023-11-21T08:02:20;24.57;;;20.30;;
8596;SDS011;4336;49.310;8.646;2023-11-21T08:04:46;30.40;;;19.23;;
8596;SDS011;4336;49.310;8.646;2023-11-21T08:07:14;27.93;;;22.30;;
8596;SDS011;4336;49.310;8.646;2023-11-21T08:09:41;27.97;;;21.80;;
8596;SDS011;4336;49.310;8.646;2023-11-21T08:12:09;28.33;;;20.87;;
8596;SDS011;4336;49.310;8.646;2023-11-21T08:14:36;30.90;;;22.50;;
8596;SDS011;4336;49.310;8.646;2023-11-21T08:17:04;31.27;;;23.67;;
8596;SDS011;4336;49.310;8.646;2023-11-21T08:19:29;34.17;;;24.93;;
8596;SDS011;4336;49.310;8.646;2023-11-21T08:21:55;28.57;;;23.20;;
8596;SDS011;4336;49.310;8.646;2023-11-21T08:24:21;33.60;;;23.93;;
8596;SDS011;4336;49.310;8.646;2023-11-21T08:26:47;28.87;;;23.50;;
8596;SDS011;4336;49.310;8.646;2023-11-21T08:29:13;32.47;;;24.87;;
8596;SDS011;4336;49.310;8.646;2023-11-21T08:31:39;40.87;;;24.83;;
8596;SDS011;4336;49.310;8.646;2023-11-21T08:34:06;38.80;;;24.13;;
8596;SDS011;4336;49.310;8.646;2023-11-21T08:36:31;33.60;;;23.93;;
8596;SDS011;4336;49.310;8.646;2023-11-21T08:38:57;31.40;;;25.03;;
8596;SDS011;4336;49.310;8.646;2023-11-21T08:41:23;32.73;;;25.60;;
8596;SDS011;4336;49.310;8.646;2023-11-21T08:43:52;34.47;;;23.43;;
8596;SDS011;4336;49.310;8.646;2023-11-21T08:46:19;30.23;;;22.07;;
8596;SDS011;4336;49.310;8.646;2023-11-21T08:48:44;35.93;;;25.07;;
8596;SDS011;4336;49.310;8.646;2023-11-21T08:51:11;32.87;;;23.17;;
8596;SDS011;4336;49.310;8.646;2023-11-21T08:53:39;36.47;;;23.30;;
8596;SDS011;4336;49.310;8.646;2023-11-21T08:56:05;29.63;;;23.17;;
8596;SDS011;4336;49.310;8.646;2023-11-21T08:58:31;31.43;;;22.93;;
8596;SDS011;4336;49.310;8.646;2023-11-21T09:00:57;29.50;;;20.77;;
8596;SDS011;4336;49.310;8.646;2023-11-21T09:03:23;29.40;;;22.23;;
8596;SDS011;4336;49.310;8.646;2023-11-21T09:05:50;32.07;;;21.57;;
8596;SDS011;4336;49.310;8.646;2023-11-21T09:08:16;29.47;;;21.37;;
8596;SDS011;4336;49.310;8.646;2023-11-21T09:10:42;27.37;;;20.20;;
8596;SDS011;4336;49.310;8.646;2023-11-21T09:13:12;24.47;;;19.20;;
8596;SDS011;4336;49.310;8.646;2023-11-21T09:15:38;27.23;;;19.70;;
8596;SDS011;4336;49.310;8.646;2023-11-21T09:18:05;18.20;;;15.33;;
8596;SDS011;4336;49.310;8.646;2023-11-21T09:20:31;23.83;;;15.17;;
8596;SDS011;4336;49.310;8.646;2023-11-21T09:22:57;19.73;;;15.10;;
8596;SDS011;4336;49.310;8.646;2023-11-21T09:25:22;19.10;;;14.77;;
8596;SDS011;4336;49.310;8.646;2023-11-21T09:27:48;18.07;;;15.77;;
8596;SDS011;4336;49.310;8.646;2023-11-21T09:30:14;20.20;;;16.07;;
8596;SDS011;4336;49.310;8.646;2023-11-21T09:32:41;14.80;;;13.30;;
8596;SDS011;4336;49.310;8.646;2023-11-21T09:35:10;16.13;;;13.33;;
8596;SDS011;4336;49.310;8.646;2023-11-21T09:37:36;13.53;;;12.23;;
8596;SDS011;4336;49.310;8.646;2023-11-21T09:40:03;14.07;;;12.63;;
8596;SDS011;4336;49.310;8.646;2023-11-21T09:42:32;12.63;;;10.70;;
8596;SDS011;4336;49.310;8.646;2023-11-21T09:47:53;12.87;;;11.50;;
8596;SDS011;4336;49.310;8.646;2023-11-21T09:50:22;12.33;;;11.07;;
8596;SDS011;4336;49.310;8.646;2023-11-21T09:52:53;14.67;;;12.53;;
8596;SDS011;4336;49.310;8.646;2023-11-21T09:55:21;12.37;;;11.27;;
8596;SDS011;4336;49.310;8.646;2023-11-21T09:57:47;12.70;;;11.60;;
8596;SDS011;4336;49.310;8.646;2023-11-21T10:00:16;11.17;;;10.00;;
8596;SDS011;4336;49.310;8.646;2023-11-21T10:02:43;15.77;;;11.53;;
8596;SDS011;4336;49.310;8.646;2023-11-21T10:05:08;11.23;;;10.30;;
8596;SDS011;4336;49.310;8.646;2023-11-21T10:07:37;10.23;;;9.33;;
8596;SDS011;4336;49.310;8.646;2023-11-21T10:10:05;11.40;;;10.33;;
8596;SDS011;4336;49.310;8.646;2023-11-21T10:12:34;11.73;;;10.73;;
8596;SDS011;4336;49.310;8.646;2023-11-21T10:15:00;13.97;;;12.63;;
8596;SDS011;4336;49.310;8.646;2023-11-21T10:17:27;11.93;;;10.80;;
8596;SDS011;4336;49.310;8.646;2023-11-21T10:19:56;14.33;;;12.17;;
8596;SDS011;4336;49.310;8.646;2023-11-21T10:22:22;10.53;;;9.63;;
8596;SDS011;4336;49.310;8.646;2023-11-21T10:24:49;12.67;;;11.47;;
8596;SDS011;4336;49.310;8.646;2023-11-21T10:27:15;12.90;;;11.70;;
8596;SDS011;4336;49.310;8.646;2023-11-21T10:29:41;11.10;;;10.00;;
8596;SDS011;4336;49.310;8.646;2023-11-21T10:32:07;16.00;;;12.90;;
8596;SDS011;4336;49.310;8.646;2023-11-21T10:34:33;10.63;;;9.73;;
8596;SDS011;4336;49.310;8.646;2023-11-21T10:36:59;10.53;;;9.37;;
8596;SDS011;4336;49.310;8.646;2023-11-21T10:39:36;10.33;;;9.37;;
8596;SDS011;4336;49.310;8.646;2023-11-21T10:42:02;13.03;;;11.70;;
8596;SDS011;4336;49.310;8.646;2023-11-21T10:44:28;11.87;;;10.67;;
8596;SDS011;4336;49.310;8.646;2023-11-21T10:46:54;11.23;;;10.20;;
8596;SDS011;4336;49.310;8.646;2023-11-21T10:49:26;14.37;;;11.67;;
8596;SDS011;4336;49.310;8.646;2023-11-21T10:51:53;13.50;;;11.20;;
8596;SDS011;4336;49.310;8.646;2023-11-21T10:54:20;12.70;;;11.50;;
8596;SDS011;4336;49.310;8.646;2023-11-21T10:56:49;13.63;;;12.33;;
8596;SDS011;4336;49.310;8.646;2023-11-21T10:59:16;16.57;;;15.00;;
8596;SDS011;4336;49.310;8.646;2023-11-21T11:01:44;14.40;;;13.00;;
8596;SDS011;4336;49.310;8.646;2023-11-21T11:04:11;14.27;;;12.87;;
8596;SDS011;4336;49.310;8.646;2023-11-21T11:06:41;15.53;;;13.80;;
8596;SDS011;4336;49.310;8.646;2023-11-21T11:09:08;15.63;;;13.73;;
8596;SDS011;4336;49.310;8.646;2023-11-21T11:11:39;16.10;;;14.40;;
8596;SDS011;4336;49.310;8.646;2023-11-21T11:14:07;15.60;;;13.73;;
8596;SDS011;4336;49.310;8.646;2023-11-21T11:16:38;17.37;;;15.67;;
8596;SDS011;4336;49.310;8.646;2023-11-21T11:19:09;18.67;;;15.93;;
8596;SDS011;4336;49.310;8.646;2023-11-21T11:38:16;21.30;;;17.27;;
8596;SDS011;4336;49.310;8.646;2023-11-21T11:40:45;20.00;;;18.07;;
8596;SDS011;4336;49.310;8.646;2023-11-21T11:43:12;18.90;;;17.10;;
8596;SDS011;4336;49.310;8.646;2023-11-21T11:45:38;16.30;;;14.70;;
8596;SDS011;4336;49.310;8.646;2023-11-21T11:48:07;17.77;;;15.97;;
8596;SDS011;4336;49.310;8.646;2023-11-21T11:50:33;18.40;;;16.60;;
8596;SDS011;4336;49.310;8.646;2023-11-21T11:53:12;15.07;;;13.50;;
8596;SDS011;4336;49.310;8.646;2023-11-21T11:55:39;14.93;;;13.53;;
8596;SDS011;4336;49.310;8.646;2023-11-21T11:58:08;13.77;;;12.43;;
8596;SDS011;4336;49.310;8.646;2023-11-21T12:00:34;16.47;;;14.90;;
8596;SDS011;4336;49.310;8.646;2023-11-21T12:03:03;15.00;;;13.60;;
8596;SDS011;4336;49.310;8.646;2023-11-21T12:05:30;13.80;;;12.40;;
8596;SDS011;4336;49.310;8.646;2023-11-21T12:08:09;14.03;;;12.73;;
8596;SDS011;4336;49.310;8.646;2023-11-21T12:10:36;17.47;;;13.00;;
8596;SDS011;4336;49.310;8.646;2023-11-21T12:13:08;15.93;;;14.13;;
8596;SDS011;4336;49.310;8.646;2023-11-21T12:15:35;13.87;;;12.63;;
8596;SDS011;4336;49.310;8.646;2023-11-21T12:18:01;13.30;;;11.53;;
8596;SDS011;4336;49.310;8.646;2023-11-21T12:20:29;16.43;;;14.47;;
8596;SDS011;4336;49.310;8.646;2023-11-21T12:22:56;17.23;;;15.53;;
8596;SDS011;4336;49.310;8.646;2023-11-21T12:25:26;14.60;;;12.73;;
8596;SDS011;4336;49.310;8.646;2023-11-21T12:28:00;14.13;;;12.73;;
8596;SDS011;4336;49.310;8.646;2023-11-21T12:30:31;15.83;;;14.23;;
8596;SDS011;4336;49.310;8.646;2023-11-21T12:33:00;16.90;;;15.30;;
8596;SDS011;4336;49.310;8.646;2023-11-21T12:35:27;14.30;;;12.90;;
8596;SDS011;4336;49.310;8.646;2023-11-21T12:37:55;14.30;;;12.90;;
8596;SDS011;4336;49.310;8.646;2023-11-21T12:40:24;14.33;;;12.83;;
8596;SDS011;4336;49.310;8.646;2023-11-21T12:42:57;14.23;;;12.93;;
8596;SDS011;4336;49.310;8.646;2023-11-21T12:45:28;15.37;;;13.83;;
8596;SDS011;4336;49.310;8.646;2023-11-21T12:47:55;12.93;;;11.63;;
8596;SDS011;4336;49.310;8.646;2023-11-21T12:50:22;15.97;;;14.37;;
8596;SDS011;4336;49.310;8.646;2023-11-21T12:52:51;18.83;;;14.30;;
8596;SDS011;4336;49.310;8.646;2023-11-21T12:55:22;13.03;;;11.73;;
8596;SDS011;4336;49.310;8.646;2023-11-21T12:57:51;15.33;;;12.77;;
8596;SDS011;4336;49.310;8.646;2023-11-21T13:00:20;14.67;;;13.17;;
8596;SDS011;4336;49.310;8.646;2023-11-21T13:02:56;15.53;;;13.87;;
8596;SDS011;4336;49.310;8.646;2023-11-21T13:05:29;12.97;;;11.50;;
8596;SDS011;4336;49.310;8.646;2023-11-21T13:07:56;12.50;;;11.27;;
8596;SDS011;4336;49.310;8.646;2023-11-21T13:10:24;11.70;;;10.50;;
8596;SDS011;4336;49.310;8.646;2023-11-21T13:12:52;12.10;;;10.80;;
8596;SDS011;4336;49.310;8.646;2023-11-21T13:15:20;13.73;;;12.47;;
8596;SDS011;4336;49.310;8.646;2023-11-21T13:17:45;13.43;;;11.40;;
8596;SDS011;4336;49.310;8.646;2023-11-21T13:20:12;26.63;;;22.33;;
8596;SDS011;4336;49.310;8.646;2023-11-21T13:22:45;14.53;;;13.03;;
8596;SDS011;4336;49.310;8.646;2023-11-21T13:25:27;13.67;;;12.27;;
8596;SDS011;4336;49.310;8.646;2023-11-21T13:27:57;11.83;;;10.73;;
8596;SDS011;4336;49.310;8.646;2023-11-21T13:30:23;12.23;;;9.20;;
8596;SDS011;4336;49.310;8.646;2023-11-21T13:32:54;12.47;;;11.17;;
8596;SDS011;4336;49.310;8.646;2023-11-21T13:35:27;13.20;;;11.57;;
8596;SDS011;4336;49.310;8.646;2023-11-21T13:38:20;15.23;;;11.20;;
8596;SDS011;4336;49.310;8.646;2023-11-21T13:40:51;12.00;;;10.43;;
8596;SDS011;4336;49.310;8.646;2023-11-21T13:43:19;12.77;;;11.33;;
8596;SDS011;4336;49.310;8.646;2023-11-21T13:45:51;13.73;;;12.50;;
8596;SDS011;4336;49.310;8.646;2023-11-21T13:48:25;13.60;;;12.20;;
8596;SDS011;4336;49.310;8.646;2023-11-21T13:50:57;11.70;;;10.53;;
8596;SDS011;4336;49.310;8.646;2023-11-21T13:53:26;13.90;;;10.57;;
8596;SDS011;4336;49.310;8.646;2023-11-21T13:55:53;11.97;;;10.67;;
8596;SDS011;4336;49.310;8.646;2023-11-21T13:58:20;12.87;;;10.97;;
8596;SDS011;4336;49.310;8.646;2023-11-21T14:00:57;14.70;;;12.10;;
8596;SDS011;4336;49.310;8.646;2023-11-21T14:03:23;12.50;;;9.73;;
8596;SDS011;4336;49.310;8.646;2023-11-21T14:05:58;12.93;;;9.00;;
8596;SDS011;4336;49.310;8.646;2023-11-21T14:08:25;12.70;;;11.47;;
8596;SDS011;4336;49.310;8.646;2023-11-21T14:10:54;11.17;;;9.80;;
8596;SDS011;4336;49.310;8.646;2023-11-21T14:13:24;9.43;;;8.53;;
8596;SDS011;4336;49.310;8.646;2023-11-21T14:15:51;11.70;;;9.50;;
8596;SDS011;4336;49.310;8.646;2023-11-21T14:18:23;10.60;;;9.60;;
8596;SDS011;4336;49.310;8.646;2023-11-21T14:20:56;14.60;;;10.53;;
8596;SDS011;4336;49.310;8.646;2023-11-21T14:23:22;10.53;;;8.53;;
8596;SDS011;4336;49.310;8.646;2023-11-21T14:25:48;12.53;;;10.43;;
8596;SDS011;4336;49.310;8.646;2023-11-21T14:28:16;11.07;;;10.00;;
8596;SDS011;4336;49.310;8.646;2023-11-21T14:30:41;12.33;;;8.00;;
8596;SDS011;4336;49.310;8.646;2023-11-21T14:33:07;10.97;;;9.87;;
8596;SDS011;4336;49.310;8.646;2023-11-21T14:35:35;11.20;;;10.10;;
8596;SDS011;4336;49.310;8.646;2023-11-21T14:38:01;9.97;;;8.97;;
8596;SDS011;4336;49.310;8.646;2023-11-21T14:40:32;13.57;;;10.27;;
8596;SDS011;4336;49.310;8.646;2023-11-21T14:43:00;11.67;;;10.40;;
8596;SDS011;4336;49.310;8.646;2023-11-21T14:45:27;9.97;;;8.97;;
8596;SDS011;4336;49.310;8.646;2023-11-21T14:47:54;12.03;;;8.10;;
8596;SDS011;4336;49.310;8.646;2023-11-21T14:50:34;10.07;;;8.27;;
8596;SDS011;4336;49.310;8.646;2023-11-21T14:53:07;11.23;;;8.37;;
8596;SDS011;4336;49.310;8.646;2023-11-21T14:55:34;9.93;;;8.30;;
8596;SDS011;4336;49.310;8.646;2023-11-21T14:58:16;13.07;;;8.57;;
8596;SDS011;4336;49.310;8.646;2023-11-21T15:00:57;16.80;;;9.50;;
8596;SDS011;4336;49.310;8.646;2023-11-21T15:03:27;14.70;;;9.10;;
8596;SDS011;4336;49.310;8.646;2023-11-21T15:06:06;11.80;;;8.50;;
8596;SDS011;4336;49.310;8.646;2023-11-21T15:08:57;13.43;;;9.87;;
8596;SDS011;4336;49.310;8.646;2023-11-21T15:11:32;15.07;;;7.63;;
8596;SDS011;4336;49.310;8.646;2023-11-21T15:13:58;16.27;;;9.20;;